sensor_id;sensor_type;location;lat;lon;timestamp;pressure;altitude;pressure_sealevel;temperature;humidity
64298;BME280;50639;53.270;7.956;2023-08-01T00:00:28;99560.59;;;17.33;85.54
64298;BME280;50639;53.270;7.956;2023-08-01T00:02:54;99555.69;;;17.30;85.60
64298;BME280;50639;53.270;7.956;2023-08-01T00:05:20;99564.91;;;17.27;85.94
64298;BME280;50639;53.270;7.956;2023-08-01T00:07:45;99564.69;;;17.29;85.76
64298;BME280;50639;53.270;7.956;2023-08-01T00:10:11;99552.63;;;17.26;85.95
64298;BME280;50639;53.270;7.956;2023-08-01T00:12:36;99559.38;;;17.29;85.70
64298;BME280;50639;53.270;7.956;2023-08-01T00:15:03;99550.56;;;17.22;85.69
64298;BME280;50639;53.270;7.956;2023-08-01T00:17:28;99545.88;;;17.24;85.85
64298;BME280;50639;53.270;7.956;2023-08-01T00:19:54;99540.56;;;17.30;85.81
64298;BME280;50639;53.270;7.956;2023-08-01T00:22:20;99543.00;;;17.32;85.44
64298;BME280;50639;53.270;7.956;2023-08-01T00:24:46;99546.28;;;17.34;85.38
64298;BME280;50639;53.270;7.956;2023-08-01T00:27:13;99534.81;;;17.27;85.70
64298;BME280;50639;53.270;7.956;2023-08-01T00:29:39;99538.09;;;17.22;85.79
64298;BME280;50639;53.270;7.956;2023-08-01T00:32:05;99531.34;;;17.20;85.88
64298;BME280;50639;53.270;7.956;2023-08-01T00:34:30;99537.66;;;17.12;86.21
64298;BME280;50639;53.270;7.956;2023-08-01T00:36:56;99531.13;;;17.21;85.80
64298;BME280;50639;53.270;7.956;2023-08-01T00:39:22;99523.75;;;17.17;85.76
64298;BME280;50639;53.270;7.956;2023-08-01T00:41:47;99535.44;;;17.22;85.65
64298;BME280;50639;53.270;7.956;2023-08-01T00:44:13;99520.91;;;17.25;85.48
64298;BME280;50639;53.270;7.956;2023-08-01T00:46:38;99517.84;;;17.21;85.61
64298;BME280;50639;53.270;7.956;2023-08-01T00:49:04;99515.38;;;17.26;85.55
64298;BME280;50639;53.270;7.956;2023-08-01T00:51:31;99514.34;;;17.27;85.53
64298;BME280;50639;53.270;7.956;2023-08-01T00:53:57;99510.06;;;17.26;85.86
64298;BME280;50639;53.270;7.956;2023-08-01T00:56:24;99494.50;;;17.23;85.71
64298;BME280;50639;53.270;7.956;2023-08-01T00:58:50;99501.88;;;17.28;85.43
64298;BME280;50639;53.270;7.956;2023-08-01T01:01:15;99507.41;;;17.26;85.46
64298;BME280;50639;53.270;7.956;2023-08-01T01:03:41;99502.91;;;17.20;85.29
64298;BME280;50639;53.270;7.956;2023-08-01T01:06:11;99493.91;;;17.21;85.46
64298;BME280;50639;53.270;7.956;2023-08-01T01:08:41;99485.72;;;17.23;85.60
64298;BME280;50639;53.270;7.956;2023-08-01T01:11:07;99482.63;;;17.19;85.43
64298;BME280;50639;53.270;7.956;2023-08-01T01:13:33;99495.53;;;17.16;85.62
64298;BME280;50639;53.270;7.956;2023-08-01T01:16:00;99485.91;;;17.15;85.60
64298;BME280;50639;53.270;7.956;2023-08-01T01:18:26;99485.31;;;17.19;85.70
64298;BME280;50639;53.270;7.956;2023-08-01T01:20:51;99474.88;;;17.18;85.43
64298;BME280;50639;53.270;7.956;2023-08-01T01:23:18;99472.22;;;17.11;85.77
64298;BME280;50639;53.270;7.956;2023-08-01T01:25:45;99477.72;;;17.16;85.60
64298;BME280;50639;53.270;7.956;2023-08-01T01:28:11;99465.66;;;17.14;85.55
64298;BME280;50639;53.270;7.956;2023-08-01T01:30:38;99466.03;;;17.04;85.38
64298;BME280;50639;53.270;7.956;2023-08-01T01:33:04;99457.84;;;16.99;85.73
64298;BME280;50639;53.270;7.956;2023-08-01T01:35:33;99462.34;;;16.98;85.64
64298;BME280;50639;53.270;7.956;2023-08-01T01:38:00;99460.91;;;16.96;85.21
64298;BME280;50639;53.270;7.956;2023-08-01T01:40:33;99465.41;;;16.95;85.78
64298;BME280;50639;53.270;7.956;2023-08-01T01:43:00;99465.00;;;16.98;85.44
64298;BME280;50639;53.270;7.956;2023-08-01T01:45:28;99459.06;;;16.90;85.60
64298;BME280;50639;53.270;7.956;2023-08-01T01:47:55;99464.59;;;16.88;85.42
64298;BME280;50639;53.270;7.956;2023-08-01T01:50:22;99468.47;;;16.79;85.78
64298;BME280;50639;53.270;7.956;2023-08-01T01:52:49;99466.44;;;16.81;85.59
64298;BME280;50639;53.270;7.956;2023-08-01T01:55:16;99458.66;;;16.86;85.39
64298;BME280;50639;53.270;7.956;2023-08-01T01:57:42;99449.06;;;16.92;85.31
64298;BME280;50639;53.270;7.956;2023-08-01T02:00:08;99439.44;;;16.84;85.22
64298;BME280;50639;53.270;7.956;2023-08-01T02:02:39;99434.75;;;16.93;85.09
64298;BME280;50639;53.270;7.956;2023-08-01T02:05:05;99429.00;;;16.89;84.98
64298;BME280;50639;53.270;7.956;2023-08-01T02:07:31;99429.78;;;16.77;84.96
64298;BME280;50639;53.270;7.956;2023-08-01T02:09:59;99422.38;;;16.59;85.54
64298;BME280;50639;53.270;7.956;2023-08-01T02:12:25;99419.94;;;16.64;85.57
64298;BME280;50639;53.270;7.956;2023-08-01T02:14:50;99423.81;;;16.61;85.73
64298;BME280;50639;53.270;7.956;2023-08-01T02:17:16;99426.53;;;16.68;85.66
64298;BME280;50639;53.270;7.956;2023-08-01T02:19:41;99419.56;;;16.67;85.69
64298;BME280;50639;53.270;7.956;2023-08-01T02:22:07;99417.94;;;16.66;85.40
64298;BME280;50639;53.270;7.956;2023-08-01T02:24:33;99420.97;;;16.63;85.65
64298;BME280;50639;53.270;7.956;2023-08-01T02:26:58;99409.50;;;16.62;85.74
64298;BME280;50639;53.270;7.956;2023-08-01T02:29:24;99414.81;;;16.62;85.60
64298;BME280;50639;53.270;7.956;2023-08-01T02:31:49;99414.03;;;16.68;85.32
64298;BME280;50639;53.270;7.956;2023-08-01T02:34:15;99417.13;;;16.72;85.32
64298;BME280;50639;53.270;7.956;2023-08-01T02:36:40;99413.84;;;16.70;85.26
64298;BME280;50639;53.270;7.956;2023-08-01T02:39:06;99409.56;;;16.69;84.99
64298;BME280;50639;53.270;7.956;2023-08-01T02:41:32;99409.75;;;16.67;85.04
64298;BME280;50639;53.270;7.956;2023-08-01T02:43:57;99405.06;;;16.69;84.71
64298;BME280;50639;53.270;7.956;2023-08-01T02:46:23;99399.50;;;16.64;84.78
64298;BME280;50639;53.270;7.956;2023-08-01T02:48:48;99389.50;;;16.66;84.85
64298;BME280;50639;53.270;7.956;2023-08-01T02:51:14;99402.97;;;16.65;85.23
64298;BME280;50639;53.270;7.956;2023-08-01T02:53:39;99392.34;;;16.58;84.86
64298;BME280;50639;53.270;7.956;2023-08-01T02:56:08;99396.44;;;16.61;84.85
64298;BME280;50639;53.270;7.956;2023-08-01T02:58:35;99402.41;;;16.69;84.76
64298;BME280;50639;53.270;7.956;2023-08-01T03:01:01;99387.69;;;16.67;84.13
64298;BME280;50639;53.270;7.956;2023-08-01T03:03:27;99389.69;;;16.65;84.23
64298;BME280;50639;53.270;7.956;2023-08-01T03:05:52;99382.72;;;16.64;83.67
64298;BME280;50639;53.270;7.956;2023-08-01T03:08:19;99384.38;;;16.65;84.25
64298;BME280;50639;53.270;7.956;2023-08-01T03:10:45;99396.22;;;16.62;83.87
64298;BME280;50639;53.270;7.956;2023-08-01T03:13:10;99397.66;;;16.58;84.11
64298;BME280;50639;53.270;7.956;2023-08-01T03:15:37;99388.66;;;16.59;83.99
64298;BME280;50639;53.270;7.956;2023-08-01T03:18:02;99396.63;;;16.59;84.08
64298;BME280;50639;53.270;7.956;2023-08-01T03:20:29;99397.25;;;16.55;84.32
64298;BME280;50639;53.270;7.956;2023-08-01T03:22:54;99400.50;;;16.50;84.52
64298;BME280;50639;53.270;7.956;2023-08-01T03:25:21;99400.31;;;16.52;84.30
64298;BME280;50639;53.270;7.956;2023-08-01T03:27:47;99404.00;;;16.57;83.96
64298;BME280;50639;53.270;7.956;2023-08-01T03:30:12;99401.34;;;16.57;84.43
64298;BME280;50639;53.270;7.956;2023-08-01T03:32:39;99397.66;;;16.52;84.00
64298;BME280;50639;53.270;7.956;2023-08-01T03:35:05;99395.59;;;16.54;83.87
64298;BME280;50639;53.270;7.956;2023-08-01T03:37:31;99398.06;;;16.49;84.46
64298;BME280;50639;53.270;7.956;2023-08-01T03:39:57;99398.88;;;16.49;84.23
64298;BME280;50639;53.270;7.956;2023-08-01T03:42:22;99393.09;;;16.46;84.13
64298;BME280;50639;53.270;7.956;2023-08-01T03:44:48;99403.53;;;16.40;83.96
64298;BME280;50639;53.270;7.956;2023-08-01T03:47:14;99402.88;;;16.25;84.52
64298;BME280;50639;53.270;7.956;2023-08-01T03:49:40;99395.50;;;16.21;84.66
64298;BME280;50639;53.270;7.956;2023-08-01T03:52:06;99403.09;;;16.30;84.75
64298;BME280;50639;53.270;7.956;2023-08-01T03:54:32;99390.00;;;16.29;84.38
64298;BME280;50639;53.270;7.956;2023-08-01T03:56:57;99403.50;;;16.27;84.16
64298;BME280;50639;53.270;7.956;2023-08-01T03:59:23;99395.72;;;16.19;84.01
64298;BME280;50639;53.270;7.956;2023-08-01T04:01:48;99400.34;;;16.04;84.55
64298;BME280;50639;53.270;7.956;2023-08-01T04:04:14;99392.94;;;15.93;85.03
64298;BME280;50639;53.270;7.956;2023-08-01T04:06:39;99401.03;;;15.85;85.05
64298;BME280;50639;53.270;7.956;2023-08-01T04:09:05;99393.69;;;15.80;85.03
64298;BME280;50639;53.270;7.956;2023-08-01T04:11:31;99406.53;;;15.76;85.11
64298;BME280;50639;53.270;7.956;2023-08-01T04:13:57;99408.94;;;15.71;85.11
64298;BME280;50639;53.270;7.956;2023-08-01T04:16:23;99399.53;;;15.69;85.19
64298;BME280;50639;53.270;7.956;2023-08-01T04:18:49;99397.28;;;15.66;85.09
64298;BME280;50639;53.270;7.956;2023-08-01T04:21:15;99403.41;;;15.66;85.38
64298;BME280;50639;53.270;7.956;2023-08-01T04:23:41;99396.03;;;15.62;85.20
64298;BME280;50639;53.270;7.956;2023-08-01T04:26:06;99400.03;;;15.58;85.36
64298;BME280;50639;53.270;7.956;2023-08-01T04:28:33;99396.56;;;15.57;85.38
64298;BME280;50639;53.270;7.956;2023-08-01T04:30:58;99401.06;;;15.57;85.23
64298;BME280;50639;53.270;7.956;2023-08-01T04:33:24;99394.72;;;15.58;85.62
64298;BME280;50639;53.270;7.956;2023-08-01T04:35:49;99398.84;;;15.60;85.25
64298;BME280;50639;53.270;7.956;2023-08-01T04:38:16;99397.16;;;15.53;85.92
64298;BME280;50639;53.270;7.956;2023-08-01T04:40:42;99393.91;;;15.57;85.88
64298;BME280;50639;53.270;7.956;2023-08-01T04:43:08;99385.78;;;15.59;85.49
64298;BME280;50639;53.270;7.956;2023-08-01T04:45:33;99391.72;;;15.61;85.12
64298;BME280;50639;53.270;7.956;2023-08-01T04:47:59;99398.34;;;15.71;85.26
64298;BME280;50639;53.270;7.956;2023-08-01T04:50:24;99389.81;;;15.83;84.50
64298;BME280;50639;53.270;7.956;2023-08-01T04:52:50;99391.91;;;15.94;84.39
64298;BME280;50639;53.270;7.956;2023-08-01T04:55:15;99401.53;;;16.01;84.59
64298;BME280;50639;53.270;7.956;2023-08-01T04:57:41;99400.16;;;16.12;84.02
64298;BME280;50639;53.270;7.956;2023-08-01T05:00:07;99409.81;;;16.20;83.81
64298;BME280;50639;53.270;7.956;2023-08-01T05:02:32;99393.91;;;16.33;83.26
64298;BME280;50639;53.270;7.956;2023-08-01T05:04:58;99397.03;;;16.50;82.82
64298;BME280;50639;53.270;7.956;2023-08-01T05:07:24;99393.00;;;16.67;82.51
64298;BME280;50639;53.270;7.956;2023-08-01T05:09:49;99389.53;;;16.73;82.19
64298;BME280;50639;53.270;7.956;2023-08-01T05:12:15;99392.22;;;16.80;81.58
64298;BME280;50639;53.270;7.956;2023-08-01T05:14:40;99395.88;;;16.85;81.52
64298;BME280;50639;53.270;7.956;2023-08-01T05:17:06;99394.00;;;16.72;82.08
64298;BME280;50639;53.270;7.956;2023-08-01T05:19:32;99390.78;;;16.84;82.08
64298;BME280;50639;53.270;7.956;2023-08-01T05:21:57;99401.00;;;16.93;81.70
64298;BME280;50639;53.270;7.956;2023-08-01T05:24:22;99393.63;;;16.89;81.79
64298;BME280;50639;53.270;7.956;2023-08-01T05:26:48;99399.16;;;16.87;81.93
64298;BME280;50639;53.270;7.956;2023-08-01T05:29:13;99390.97;;;16.89;82.03
64298;BME280;50639;53.270;7.956;2023-08-01T05:31:39;99393.44;;;16.77;82.38
64298;BME280;50639;53.270;7.956;2023-08-01T05:34:04;99390.38;;;16.80;82.53
64298;BME280;50639;53.270;7.956;2023-08-01T05:36:30;99397.09;;;16.76;82.46
64298;BME280;50639;53.270;7.956;2023-08-01T05:38:56;99392.78;;;16.75;82.49
64298;BME280;50639;53.270;7.956;2023-08-01T05:41:22;99387.22;;;16.63;82.56
64298;BME280;50639;53.270;7.956;2023-08-01T05:43:48;99396.03;;;16.64;82.58
64298;BME280;50639;53.270;7.956;2023-08-01T05:46:14;99393.81;;;16.67;82.89
64298;BME280;50639;53.270;7.956;2023-08-01T05:48:40;99389.53;;;16.73;82.60
64298;BME280;50639;53.270;7.956;2023-08-01T05:51:05;99389.75;;;16.78;82.43
64298;BME280;50639;53.270;7.956;2023-08-01T05:53:31;99393.00;;;16.73;82.34
64298;BME280;50639;53.270;7.956;2023-08-01T05:55:57;99403.41;;;16.75;82.31
64298;BME280;50639;53.270;7.956;2023-08-01T05:58:22;99408.94;;;16.67;82.60
64298;BME280;50639;53.270;7.956;2023-08-01T06:00:48;99405.00;;;16.63;83.12
64298;BME280;50639;53.270;7.956;2023-08-01T06:03:13;99409.56;;;16.76;81.83
64298;BME280;50639;53.270;7.956;2023-08-01T06:05:39;99406.13;;;16.88;81.97
64298;BME280;50639;53.270;7.956;2023-08-01T06:08:07;99407.94;;;16.81;81.75
64298;BME280;50639;53.270;7.956;2023-08-01T06:10:34;99402.03;;;16.79;82.64
64298;BME280;50639;53.270;7.956;2023-08-01T06:12:59;99399.97;;;16.88;81.75
64298;BME280;50639;53.270;7.956;2023-08-01T06:15:25;99402.84;;;16.93;81.74
64298;BME280;50639;53.270;7.956;2023-08-01T06:17:51;99410.19;;;16.91;81.24
64298;BME280;50639;53.270;7.956;2023-08-01T06:20:16;99408.38;;;16.85;80.98
64298;BME280;50639;53.270;7.956;2023-08-01T06:22:42;99414.91;;;16.95;80.44
64298;BME280;50639;53.270;7.956;2023-08-01T06:25:08;99412.25;;;17.02;80.09
64298;BME280;50639;53.270;7.956;2023-08-01T06:27:34;99411.88;;;17.12;80.12
64298;BME280;50639;53.270;7.956;2023-08-01T06:30:00;99418.81;;;17.19;79.81
64298;BME280;50639;53.270;7.956;2023-08-01T06:32:25;99410.81;;;17.26;80.46
64298;BME280;50639;53.270;7.956;2023-08-01T06:34:51;99419.41;;;17.41;79.21
64298;BME280;50639;53.270;7.956;2023-08-01T06:37:16;99410.22;;;17.44;78.56
64298;BME280;50639;53.270;7.956;2023-08-01T06:39:42;99420.63;;;17.45;78.20
64298;BME280;50639;53.270;7.956;2023-08-01T06:42:07;99411.44;;;17.41;78.02
64298;BME280;50639;53.270;7.956;2023-08-01T06:44:34;99419.22;;;17.36;78.62
64298;BME280;50639;53.270;7.956;2023-08-01T06:46:59;99422.28;;;17.46;76.80
64298;BME280;50639;53.270;7.956;2023-08-01T06:49:25;99432.31;;;17.31;77.87
64298;BME280;50639;53.270;7.956;2023-08-01T06:51:50;99422.50;;;17.38;77.57
64298;BME280;50639;53.270;7.956;2023-08-01T06:54:16;99428.84;;;17.37;77.58
64298;BME280;50639;53.270;7.956;2023-08-01T06:56:41;99424.53;;;17.29;77.25
64298;BME280;50639;53.270;7.956;2023-08-01T06:59:16;99424.09;;;17.32;76.69
64298;BME280;50639;53.270;7.956;2023-08-01T07:01:42;99427.19;;;17.43;77.57
64298;BME280;50639;53.270;7.956;2023-08-01T07:04:10;99423.94;;;17.41;76.48
64298;BME280;50639;53.270;7.956;2023-08-01T07:06:35;99424.53;;;17.49;77.95
64298;BME280;50639;53.270;7.956;2023-08-01T07:09:01;99431.44;;;17.63;76.53
64298;BME280;50639;53.270;7.956;2023-08-01T07:11:26;99431.69;;;17.69;76.50
64298;BME280;50639;53.270;7.956;2023-08-01T07:13:52;99427.94;;;18.03;76.10
64298;BME280;50639;53.270;7.956;2023-08-01T07:16:17;99421.28;;;18.25;74.28
64298;BME280;50639;53.270;7.956;2023-08-01T07:18:43;99430.19;;;18.44;74.25
64298;BME280;50639;53.270;7.956;2023-08-01T07:21:08;99428.56;;;18.43;72.74
64298;BME280;50639;53.270;7.956;2023-08-01T07:23:34;99423.66;;;18.40;72.37
64298;BME280;50639;53.270;7.956;2023-08-01T07:26:02;99421.31;;;18.63;74.18
64298;BME280;50639;53.270;7.956;2023-08-01T07:28:27;99419.38;;;18.83;72.28
64298;BME280;50639;53.270;7.956;2023-08-01T07:31:06;99418.63;;;18.70;73.69
64298;BME280;50639;53.270;7.956;2023-08-01T07:33:35;99421.94;;;18.65;72.32
64298;BME280;50639;53.270;7.956;2023-08-01T07:36:03;99422.16;;;18.12;73.73
64298;BME280;50639;53.270;7.956;2023-08-01T07:38:29;99427.88;;;18.16;73.79
64298;BME280;50639;53.270;7.956;2023-08-01T07:40:57;99426.72;;;17.99;74.29
64298;BME280;50639;53.270;7.956;2023-08-01T07:43:22;99430.00;;;17.87;75.11
64298;BME280;50639;53.270;7.956;2023-08-01T07:45:48;99432.06;;;17.85;74.89
64298;BME280;50639;53.270;7.956;2023-08-01T07:48:16;99436.19;;;17.75;75.18
64298;BME280;50639;53.270;7.956;2023-08-01T07:50:41;99435.94;;;17.89;74.11
64298;BME280;50639;53.270;7.956;2023-08-01T07:53:07;99428.09;;;18.08;73.79
64298;BME280;50639;53.270;7.956;2023-08-01T07:55:35;99440.16;;;18.23;73.05
64298;BME280;50639;53.270;7.956;2023-08-01T07:58:01;99432.88;;;18.44;72.91
64298;BME280;50639;53.270;7.956;2023-08-01T08:00:27;99424.66;;;18.45;72.17
64298;BME280;50639;53.270;7.956;2023-08-01T08:02:53;99434.75;;;18.37;72.29
64298;BME280;50639;53.270;7.956;2023-08-01T08:05:18;99427.84;;;18.67;71.91
64298;BME280;50639;53.270;7.956;2023-08-01T08:07:44;99425.72;;;18.82;71.66
64298;BME280;50639;53.270;7.956;2023-08-01T08:10:10;99418.31;;;18.84;71.58
64298;BME280;50639;53.270;7.956;2023-08-01T08:12:35;99423.13;;;18.69;68.82
64298;BME280;50639;53.270;7.956;2023-08-01T08:15:01;99421.50;;;18.62;70.76
64298;BME280;50639;53.270;7.956;2023-08-01T08:17:26;99425.72;;;18.38;71.29
64298;BME280;50639;53.270;7.956;2023-08-01T08:19:51;99421.34;;;18.05;71.64
64298;BME280;50639;53.270;7.956;2023-08-01T08:22:17;99429.78;;;18.02;72.01
64298;BME280;50639;53.270;7.956;2023-08-01T08:24:42;99438.19;;;17.86;72.20
64298;BME280;50639;53.270;7.956;2023-08-01T08:27:08;99437.00;;;17.75;72.78
64298;BME280;50639;53.270;7.956;2023-08-01T08:29:34;99438.59;;;17.89;72.75
64298;BME280;50639;53.270;7.956;2023-08-01T08:31:59;99440.59;;;18.07;72.06
64298;BME280;50639;53.270;7.956;2023-08-01T08:34:25;99433.44;;;18.08;72.81
64298;BME280;50639;53.270;7.956;2023-08-01T08:36:52;99439.06;;;18.38;72.25
64298;BME280;50639;53.270;7.956;2023-08-01T08:39:18;99427.69;;;18.55;73.26
64298;BME280;50639;53.270;7.956;2023-08-01T08:41:48;99429.81;;;18.85;68.45
64298;BME280;50639;53.270;7.956;2023-08-01T08:44:16;99444.81;;;19.11;67.43
64298;BME280;50639;53.270;7.956;2023-08-01T08:46:43;99443.75;;;19.37;68.12
64298;BME280;50639;53.270;7.956;2023-08-01T08:49:09;99443.22;;;19.28;67.56
64298;BME280;50639;53.270;7.956;2023-08-01T08:51:36;99441.94;;;19.37;67.97
64298;BME280;50639;53.270;7.956;2023-08-01T08:54:05;99458.38;;;19.34;65.55
64298;BME280;50639;53.270;7.956;2023-08-01T08:56:30;99442.19;;;19.29;65.47
64298;BME280;50639;53.270;7.956;2023-08-01T08:58:57;99449.38;;;19.29;67.39
64298;BME280;50639;53.270;7.956;2023-08-01T09:01:22;99441.31;;;19.35;66.61
64298;BME280;50639;53.270;7.956;2023-08-01T09:03:48;99437.72;;;19.73;67.38
64298;BME280;50639;53.270;7.956;2023-08-01T09:06:18;99438.63;;;19.85;66.32
64298;BME280;50639;53.270;7.956;2023-08-01T09:09:10;99432.16;;;19.74;65.21
64298;BME280;50639;53.270;7.956;2023-08-01T09:11:49;99445.06;;;19.77;66.73
64298;BME280;50639;53.270;7.956;2023-08-01T09:14:16;99442.97;;;19.61;64.78
64298;BME280;50639;53.270;7.956;2023-08-01T09:16:42;99439.91;;;19.58;64.53
64298;BME280;50639;53.270;7.956;2023-08-01T09:19:08;99432.94;;;19.32;65.08
64298;BME280;50639;53.270;7.956;2023-08-01T09:21:35;99433.75;;;19.32;65.63
64298;BME280;50639;53.270;7.956;2023-08-01T09:24:12;99432.84;;;19.20;65.70
64298;BME280;50639;53.270;7.956;2023-08-01T09:26:38;99434.31;;;19.41;67.43
64298;BME280;50639;53.270;7.956;2023-08-01T09:29:04;99437.84;;;19.60;65.42
64298;BME280;50639;53.270;7.956;2023-08-01T09:31:32;99440.63;;;19.22;64.43
64298;BME280;50639;53.270;7.956;2023-08-01T09:33:59;99439.69;;;19.09;65.83
64298;BME280;50639;53.270;7.956;2023-08-01T09:36:25;99437.94;;;19.22;65.17
64298;BME280;50639;53.270;7.956;2023-08-01T09:38:51;99439.22;;;19.44;64.67
64298;BME280;50639;53.270;7.956;2023-08-01T09:41:20;99432.34;;;19.55;65.15
64298;BME280;50639;53.270;7.956;2023-08-01T09:43:49;99437.72;;;19.48;65.98
64298;BME280;50639;53.270;7.956;2023-08-01T09:46:15;99455.88;;;19.08;67.77
64298;BME280;50639;53.270;7.956;2023-08-01T09:48:41;99443.53;;;18.44;71.02
64298;BME280;50639;53.270;7.956;2023-08-01T09:51:14;99454.59;;;17.96;74.02
64298;BME280;50639;53.270;7.956;2023-08-01T09:53:51;99449.47;;;17.88;75.82
64298;BME280;50639;53.270;7.956;2023-08-01T09:56:25;99444.50;;;18.05;75.53
64298;BME280;50639;53.270;7.956;2023-08-01T09:58:55;99435.22;;;18.20;74.84
64298;BME280;50639;53.270;7.956;2023-08-01T10:01:22;99441.72;;;18.38;75.12
64298;BME280;50639;53.270;7.956;2023-08-01T10:03:49;99432.16;;;18.68;75.87
64298;BME280;50639;53.270;7.956;2023-08-01T10:06:23;99441.31;;;18.79;74.38
64298;BME280;50639;53.270;7.956;2023-08-01T10:08:50;99439.28;;;18.74;74.35
64298;BME280;50639;53.270;7.956;2023-08-01T10:11:20;99433.53;;;18.77;73.40
64298;BME280;50639;53.270;7.956;2023-08-01T10:13:47;99437.84;;;19.10;73.04
64298;BME280;50639;53.270;7.956;2023-08-01T10:16:14;99417.03;;;19.18;73.07
64298;BME280;50639;53.270;7.956;2023-08-01T10:18:40;99427.41;;;19.08;73.17
64298;BME280;50639;53.270;7.956;2023-08-01T10:21:11;99424.03;;;18.88;72.51
64298;BME280;50639;53.270;7.956;2023-08-01T10:23:37;99438.91;;;18.71;72.91
64298;BME280;50639;53.270;7.956;2023-08-01T10:26:05;99432.09;;;18.81;73.07
64298;BME280;50639;53.270;7.956;2023-08-01T10:28:37;99433.94;;;18.81;73.36
64298;BME280;50639;53.270;7.956;2023-08-01T10:31:14;99437.09;;;18.65;73.85
64298;BME280;50639;53.270;7.956;2023-08-01T10:33:42;99450.66;;;18.63;74.58
64298;BME280;50639;53.270;7.956;2023-08-01T10:36:18;99458.22;;;18.60;75.28
64298;BME280;50639;53.270;7.956;2023-08-01T10:38:54;99457.22;;;18.54;74.29
64298;BME280;50639;53.270;7.956;2023-08-01T10:41:27;99460.41;;;18.82;74.13
64298;BME280;50639;53.270;7.956;2023-08-01T10:49:16;99458.38;;;19.09;72.22
64298;BME280;50639;53.270;7.956;2023-08-01T10:51:42;99467.84;;;18.67;70.84
64298;BME280;50639;53.270;7.956;2023-08-01T10:54:20;99464.66;;;18.90;72.71
64298;BME280;50639;53.270;7.956;2023-08-01T10:56:46;99464.91;;;18.82;71.13
64298;BME280;50639;53.270;7.956;2023-08-01T10:59:13;99474.00;;;18.61;72.37
64298;BME280;50639;53.270;7.956;2023-08-01T11:01:48;99455.56;;;18.60;73.30
64298;BME280;50639;53.270;7.956;2023-08-01T11:04:23;99468.50;;;18.49;72.74
64298;BME280;50639;53.270;7.956;2023-08-01T11:06:52;99484.63;;;18.23;75.98
64298;BME280;50639;53.270;7.956;2023-08-01T11:09:20;99485.66;;;18.15;75.54
64298;BME280;50639;53.270;7.956;2023-08-01T11:11:50;99483.44;;;18.06;74.99
64298;BME280;50639;53.270;7.956;2023-08-01T11:14:16;99480.59;;;17.87;75.63
64298;BME280;50639;53.270;7.956;2023-08-01T11:16:43;99490.41;;;18.00;76.09
64298;BME280;50639;53.270;7.956;2023-08-01T11:21:48;99503.31;;;18.03;75.66
64298;BME280;50639;53.270;7.956;2023-08-01T11:24:13;99490.75;;;18.30;76.06
64298;BME280;50639;53.270;7.956;2023-08-01T11:26:43;99498.88;;;18.42;75.98
64298;BME280;50639;53.270;7.956;2023-08-01T11:29:10;99492.19;;;18.19;76.41
64298;BME280;50639;53.270;7.956;2023-08-01T11:31:37;99496.72;;;18.12;77.97
64298;BME280;50639;53.270;7.956;2023-08-01T11:34:02;99497.16;;;18.09;76.50
64298;BME280;50639;53.270;7.956;2023-08-01T11:36:28;99487.97;;;18.50;76.37
64298;BME280;50639;53.270;7.956;2023-08-01T11:38:57;99494.94;;;18.57;75.99
64298;BME280;50639;53.270;7.956;2023-08-01T11:41:24;99497.13;;;18.80;75.59
64298;BME280;50639;53.270;7.956;2023-08-01T11:43:49;99491.47;;;18.57;75.13
64298;BME280;50639;53.270;7.956;2023-08-01T11:46:16;99512.56;;;18.65;74.78
64298;BME280;50639;53.270;7.956;2023-08-01T11:48:45;99510.38;;;18.94;74.55
64298;BME280;50639;53.270;7.956;2023-08-01T11:51:17;99513.94;;;18.81;76.84
64298;BME280;50639;53.270;7.956;2023-08-01T11:53:42;99517.91;;;19.03;72.16
64298;BME280;50639;53.270;7.956;2023-08-01T11:56:08;99516.53;;;18.94;71.20
64298;BME280;50639;53.270;7.956;2023-08-01T11:58:44;99531.72;;;18.94;71.25
64298;BME280;50639;53.270;7.956;2023-08-01T12:01:13;99526.94;;;19.34;71.07
64298;BME280;50639;53.270;7.956;2023-08-01T12:06:09;99522.25;;;19.29;73.98
64298;BME280;50639;53.270;7.956;2023-08-01T12:08:34;99531.09;;;18.92;71.63
64298;BME280;50639;53.270;7.956;2023-08-01T12:11:00;99539.44;;;19.08;71.36
64298;BME280;50639;53.270;7.956;2023-08-01T12:13:26;99535.75;;;18.65;72.55
64298;BME280;50639;53.270;7.956;2023-08-01T12:15:55;99543.81;;;19.28;71.91
64298;BME280;50639;53.270;7.956;2023-08-01T12:18:26;99549.91;;;19.35;70.79
64298;BME280;50639;53.270;7.956;2023-08-01T12:20:52;99541.25;;;19.46;69.93
64298;BME280;50639;53.270;7.956;2023-08-01T12:23:18;99540.38;;;19.21;71.22
64298;BME280;50639;53.270;7.956;2023-08-01T12:25:44;99551.91;;;18.70;73.44
64298;BME280;50639;53.270;7.956;2023-08-01T12:28:10;99565.09;;;18.51;75.40
64298;BME280;50639;53.270;7.956;2023-08-01T12:30:35;99569.28;;;18.08;76.15
64298;BME280;50639;53.270;7.956;2023-08-01T12:33:01;99572.50;;;18.36;76.42
64298;BME280;50639;53.270;7.956;2023-08-01T12:35:26;99584.19;;;18.35;75.95
64298;BME280;50639;53.270;7.956;2023-08-01T12:37:53;99572.25;;;18.44;76.64
64298;BME280;50639;53.270;7.956;2023-08-01T12:40:19;99579.00;;;18.60;76.40
64298;BME280;50639;53.270;7.956;2023-08-01T12:42:46;99587.78;;;18.80;76.68
64298;BME280;50639;53.270;7.956;2023-08-01T12:45:12;99576.69;;;18.83;75.90
64298;BME280;50639;53.270;7.956;2023-08-01T12:47:37;99580.56;;;18.87;76.09
64298;BME280;50639;53.270;7.956;2023-08-01T12:50:03;99578.66;;;19.01;76.15
64298;BME280;50639;53.270;7.956;2023-08-01T12:52:29;99568.09;;;19.19;76.29
64298;BME280;50639;53.270;7.956;2023-08-01T12:54:54;99579.59;;;19.20;76.92
64298;BME280;50639;53.270;7.956;2023-08-01T12:57:20;99575.34;;;19.44;76.37
64298;BME280;50639;53.270;7.956;2023-08-01T12:59:45;99580.72;;;19.37;74.90
64298;BME280;50639;53.270;7.956;2023-08-01T13:02:11;99569.03;;;19.70;74.99
64298;BME280;50639;53.270;7.956;2023-08-01T13:04:36;99565.69;;;19.99;74.54
64298;BME280;50639;53.270;7.956;2023-08-01T13:07:03;99570.56;;;19.53;73.29